sensor_id;sensor_type;location;lat;lon;timestamp;P1;durP1;ratioP1;P2;durP2;ratioP2
34521;SDS011;25561;48.888;8.736;2023-04-03T05:31:08;4.90;;;2.42;;
34521;SDS011;25561;48.888;8.736;2023-04-03T05:34:10;6.00;;;2.15;;
34521;SDS011;25561;48.888;8.736;2023-04-03T05:37:12;6.38;;;2.70;;
34521;SDS011;25561;48.888;8.736;2023-04-03T05:40:14;6.95;;;2.38;;
34521;SDS011;25561;48.888;8.736;2023-04-03T05:43:18;5.70;;;2.80;;
34521;SDS011;25561;48.888;8.736;2023-04-03T05:46:20;4.00;;;2.25;;
34521;SDS011;25561;48.888;8.736;2023-04-03T05:49:23;3.97;;;2.25;;
34521;SDS011;25561;48.888;8.736;2023-04-03T05:52:26;4.10;;;2.20;;
34521;SDS011;25561;48.888;8.736;2023-04-03T05:55:29;5.65;;;2.40;;
34521;SDS011;25561;48.888;8.736;2023-04-03T05:58:31;5.38;;;2.85;;
34521;SDS011;25561;48.888;8.736;2023-04-03T06:01:33;6.60;;;2.60;;
34521;SDS011;25561;48.888;8.736;2023-04-03T06:04:35;3.95;;;2.20;;
34521;SDS011;25561;48.888;8.736;2023-04-03T06:07:38;5.95;;;2.80;;
34521;SDS011;25561;48.888;8.736;2023-04-03T06:10:40;8.65;;;2.38;;
34521;SDS011;25561;48.888;8.736;2023-04-03T06:49:39;7.35;;;2.70;;
34521;SDS011;25561;48.888;8.736;2023-04-03T06:52:41;7.07;;;2.67;;
34521;SDS011;25561;48.888;8.736;2023-04-03T06:55:44;5.70;;;2.40;;
34521;SDS011;25561;48.888;8.736;2023-04-03T06:58:49;7.03;;;2.58;;
34521;SDS011;25561;48.888;8.736;2023-04-03T07:01:52;6.57;;;2.83;;
34521;SDS011;25561;48.888;8.736;2023-04-03T07:04:53;5.53;;;2.45;;
34521;SDS011;25561;48.888;8.736;2023-04-03T07:07:56;5.85;;;2.90;;
34521;SDS011;25561;48.888;8.736;2023-04-03T07:10:59;15.70;;;2.55;;
34521;SDS011;25561;48.888;8.736;2023-04-03T07:14:02;5.65;;;2.38;;
34521;SDS011;25561;48.888;8.736;2023-04-03T07:17:04;7.70;;;2.97;;
34521;SDS011;25561;48.888;8.736;2023-04-03T07:20:06;7.00;;;2.72;;
34521;SDS011;25561;48.888;8.736;2023-04-03T07:23:09;11.07;;;2.92;;
34521;SDS011;25561;48.888;8.736;2023-04-03T07:26:11;7.32;;;2.78;;
34521;SDS011;25561;48.888;8.736;2023-04-03T07:29:13;8.88;;;3.13;;
34521;SDS011;25561;48.888;8.736;2023-04-03T07:32:15;6.70;;;3.00;;
34521;SDS011;25561;48.888;8.736;2023-04-03T07:35:17;11.82;;;3.03;;
34521;SDS011;25561;48.888;8.736;2023-04-03T07:38:19;5.07;;;3.10;;
34521;SDS011;25561;48.888;8.736;2023-04-03T07:41:21;9.55;;;3.10;;
34521;SDS011;25561;48.888;8.736;2023-04-03T07:44:24;5.95;;;2.70;;
34521;SDS011;25561;48.888;8.736;2023-04-03T07:47:26;9.82;;;3.95;;
34521;SDS011;25561;48.888;8.736;2023-04-03T07:50:28;12.73;;;3.17;;
34521;SDS011;25561;48.888;8.736;2023-04-03T07:53:31;11.63;;;3.80;;
34521;SDS011;25561;48.888;8.736;2023-04-03T07:56:33;7.53;;;2.80;;
34521;SDS011;25561;48.888;8.736;2023-04-03T07:59:36;6.22;;;2.50;;
34521;SDS011;25561;48.888;8.736;2023-04-03T08:02:38;9.13;;;2.97;;
34521;SDS011;25561;48.888;8.736;2023-04-03T08:05:41;5.65;;;2.63;;
34521;SDS011;25561;48.888;8.736;2023-04-03T08:08:47;7.78;;;2.72;;
34521;SDS011;25561;48.888;8.736;2023-04-03T08:11:49;7.38;;;3.25;;
34521;SDS011;25561;48.888;8.736;2023-04-03T08:14:54;8.85;;;2.85;;
34521;SDS011;25561;48.888;8.736;2023-04-03T08:17:58;10.88;;;3.63;;
34521;SDS011;25561;48.888;8.736;2023-04-03T08:21:07;8.07;;;3.28;;
34521;SDS011;25561;48.888;8.736;2023-04-03T08:24:13;10.82;;;3.08;;
34521;SDS011;25561;48.888;8.736;2023-04-03T08:27:15;8.98;;;3.60;;
34521;SDS011;25561;48.888;8.736;2023-04-03T08:30:17;6.20;;;2.90;;
34521;SDS011;25561;48.888;8.736;2023-04-03T08:33:19;8.82;;;3.22;;
34521;SDS011;25561;48.888;8.736;2023-04-03T08:36:22;8.57;;;3.33;;
34521;SDS011;25561;48.888;8.736;2023-04-03T08:39:29;8.20;;;3.30;;
34521;SDS011;25561;48.888;8.736;2023-04-03T08:51:53;20.35;;;3.45;;
34521;SDS011;25561;48.888;8.736;2023-04-03T08:54:57;8.45;;;2.90;;
34521;SDS011;25561;48.888;8.736;2023-04-03T08:58:06;5.68;;;2.70;;
34521;SDS011;25561;48.888;8.736;2023-04-03T09:04:35;11.05;;;2.88;;
34521;SDS011;25561;48.888;8.736;2023-04-03T09:07:39;9.93;;;3.50;;
34521;SDS011;25561;48.888;8.736;2023-04-03T09:10:52;10.18;;;2.90;;
34521;SDS011;25561;48.888;8.736;2023-04-03T09:14:04;9.70;;;3.55;;
34521;SDS011;25561;48.888;8.736;2023-04-03T09:23:42;7.57;;;2.72;;
34521;SDS011;25561;48.888;8.736;2023-04-03T09:30:01;11.30;;;2.78;;
34521;SDS011;25561;48.888;8.736;2023-04-03T09:33:04;12.50;;;2.50;;
34521;SDS011;25561;48.888;8.736;2023-04-03T09:36:06;9.35;;;2.90;;
34521;SDS011;25561;48.888;8.736;2023-04-03T09:39:13;10.10;;;2.85;;
34521;SDS011;25561;48.888;8.736;2023-04-03T09:45:30;5.57;;;2.30;;
34521;SDS011;25561;48.888;8.736;2023-04-03T09:48:37;13.07;;;2.22;;
34521;SDS011;25561;48.888;8.736;2023-04-03T09:51:39;10.27;;;2.42;;
34521;SDS011;25561;48.888;8.736;2023-04-03T09:54:42;8.57;;;2.78;;
34521;SDS011;25561;48.888;8.736;2023-04-03T09:57:47;7.55;;;2.35;;
34521;SDS011;25561;48.888;8.736;2023-04-03T10:00:54;8.35;;;2.30;;
34521;SDS011;25561;48.888;8.736;2023-04-03T10:10:30;7.80;;;2.65;;
34521;SDS011;25561;48.888;8.736;2023-04-03T10:13:32;5.07;;;2.15;;
34521;SDS011;25561;48.888;8.736;2023-04-03T10:16:48;5.50;;;2.40;;
34521;SDS011;25561;48.888;8.736;2023-04-03T10:20:22;8.40;;;2.47;;
34521;SDS011;25561;48.888;8.736;2023-04-03T10:23:37;6.38;;;2.20;;
34521;SDS011;25561;48.888;8.736;2023-04-03T10:30:17;8.65;;;2.20;;
34521;SDS011;25561;48.888;8.736;2023-04-03T10:40:33;7.65;;;2.33;;
34521;SDS011;25561;48.888;8.736;2023-04-03T10:48:07;4.90;;;2.10;;
34521;SDS011;25561;48.888;8.736;2023-04-03T10:54:36;2.65;;;1.48;;
34521;SDS011;25561;48.888;8.736;2023-04-03T10:57:41;4.78;;;1.95;;
34521;SDS011;25561;48.888;8.736;2023-04-03T11:00:45;5.30;;;1.92;;
34521;SDS011;25561;48.888;8.736;2023-04-03T11:03:56;6.05;;;1.73;;
34521;SDS011;25561;48.888;8.736;2023-04-03T11:07:01;4.68;;;2.05;;
34521;SDS011;25561;48.888;8.736;2023-04-03T11:10:13;7.85;;;2.20;;
34521;SDS011;25561;48.888;8.736;2023-04-03T11:13:32;9.00;;;2.17;;
34521;SDS011;25561;48.888;8.736;2023-04-03T11:16:39;8.45;;;1.75;;
34521;SDS011;25561;48.888;8.736;2023-04-03T11:23:21;6.30;;;1.88;;
34521;SDS011;25561;48.888;8.736;2023-04-03T11:26:48;4.00;;;1.60;;
34521;SDS011;25561;48.888;8.736;2023-04-03T11:29:52;7.45;;;1.90;;
34521;SDS011;25561;48.888;8.736;2023-04-03T11:33:04;6.13;;;2.10;;
34521;SDS011;25561;48.888;8.736;2023-04-03T11:39:33;5.00;;;1.67;;
34521;SDS011;25561;48.888;8.736;2023-04-03T11:42:40;7.70;;;2.10;;
34521;SDS011;25561;48.888;8.736;2023-04-03T11:48:52;5.28;;;1.70;;
34521;SDS011;25561;48.888;8.736;2023-04-03T11:51:54;3.45;;;1.60;;
34521;SDS011;25561;48.888;8.736;2023-04-03T11:54:56;4.05;;;1.75;;
34521;SDS011;25561;48.888;8.736;2023-04-03T12:01:02;4.20;;;2.03;;
34521;SDS011;25561;48.888;8.736;2023-04-03T12:04:08;5.20;;;1.90;;
34521;SDS011;25561;48.888;8.736;2023-04-03T12:07:16;8.48;;;1.98;;
34521;SDS011;25561;48.888;8.736;2023-04-03T12:10:20;8.02;;;2.03;;
34521;SDS011;25561;48.888;8.736;2023-04-03T12:13:32;4.45;;;2.05;;
34521;SDS011;25561;48.888;8.736;2023-04-03T12:19:40;6.68;;;2.05;;
34521;SDS011;25561;48.888;8.736;2023-04-03T12:23:06;7.53;;;1.95;;
34521;SDS011;25561;48.888;8.736;2023-04-03T12:26:27;6.97;;;2.28;;
34521;SDS011;25561;48.888;8.736;2023-04-03T12:36:26;5.88;;;2.05;;
34521;SDS011;25561;48.888;8.736;2023-04-03T12:39:55;6.00;;;2.72;;
34521;SDS011;25561;48.888;8.736;2023-04-03T12:46:21;10.27;;;1.95;;
34521;SDS011;25561;48.888;8.736;2023-04-03T12:49:29;6.63;;;1.95;;
34521;SDS011;25561;48.888;8.736;2023-04-03T12:52:37;5.07;;;1.52;;
34521;SDS011;25561;48.888;8.736;2023-04-03T12:55:55;5.43;;;1.70;;
34521;SDS011;25561;48.888;8.736;2023-04-03T12:59:20;6.45;;;1.85;;
34521;SDS011;25561;48.888;8.736;2023-04-03T13:02:32;7.50;;;2.33;;
34521;SDS011;25561;48.888;8.736;2023-04-03T13:05:35;6.47;;;1.70;;
34521;SDS011;25561;48.888;8.736;2023-04-03T13:08:48;5.82;;;1.73;;
34521;SDS011;25561;48.888;8.736;2023-04-03T13:12:15;8.38;;;2.20;;
34521;SDS011;25561;48.888;8.736;2023-04-03T13:15:21;4.85;;;2.22;;
34521;SDS011;25561;48.888;8.736;2023-04-03T13:18:40;7.90;;;2.20;;
34521;SDS011;25561;48.888;8.736;2023-04-03T13:21:43;2.40;;;1.52;;
34521;SDS011;25561;48.888;8.736;2023-04-03T13:24:46;8.48;;;2.35;;
34521;SDS011;25561;48.888;8.736;2023-04-03T13:27:52;7.50;;;2.30;;
34521;SDS011;25561;48.888;8.736;2023-04-03T13:34:17;6.38;;;1.90;;
34521;SDS011;25561;48.888;8.736;2023-04-03T13:37:25;6.57;;;1.83;;
34521;SDS011;25561;48.888;8.736;2023-04-03T13:40:32;7.80;;;2.05;;
34521;SDS011;25561;48.888;8.736;2023-04-03T13:43:51;8.10;;;1.92;;
34521;SDS011;25561;48.888;8.736;2023-04-03T13:47:14;5.93;;;1.88;;
34521;SDS011;25561;48.888;8.736;2023-04-03T13:53:21;5.30;;;2.30;;
34521;SDS011;25561;48.888;8.736;2023-04-03T13:59:33;8.57;;;1.85;;
34521;SDS011;25561;48.888;8.736;2023-04-03T14:02:38;5.32;;;2.20;;
34521;SDS011;25561;48.888;8.736;2023-04-03T14:05:40;5.20;;;2.13;;
34521;SDS011;25561;48.888;8.736;2023-04-03T14:08:43;8.50;;;2.47;;
34521;SDS011;25561;48.888;8.736;2023-04-03T14:11:47;6.35;;;2.17;;
34521;SDS011;25561;48.888;8.736;2023-04-03T14:14:51;6.13;;;1.67;;
34521;SDS011;25561;48.888;8.736;2023-04-03T14:17:54;5.85;;;1.95;;
34521;SDS011;25561;48.888;8.736;2023-04-03T14:20:56;5.43;;;2.15;;
34521;SDS011;25561;48.888;8.736;2023-04-03T14:23:58;3.88;;;1.80;;
34521;SDS011;25561;48.888;8.736;2023-04-03T14:27:16;7.75;;;1.50;;
34521;SDS011;25561;48.888;8.736;2023-04-03T14:33:26;8.00;;;2.30;;
34521;SDS011;25561;48.888;8.736;2023-04-03T14:36:30;4.40;;;1.88;;
34521;SDS011;25561;48.888;8.736;2023-04-03T14:39:33;3.53;;;1.40;;
34521;SDS011;25561;48.888;8.736;2023-04-03T14:42:35;10.32;;;2.13;;
34521;SDS011;25561;48.888;8.736;2023-04-03T14:45:38;6.07;;;2.03;;
34521;SDS011;25561;48.888;8.736;2023-04-03T14:48:40;3.83;;;1.75;;
34521;SDS011;25561;48.888;8.736;2023-04-03T14:51:42;4.45;;;1.85;;
34521;SDS011;25561;48.888;8.736;2023-04-03T14:54:44;5.80;;;1.80;;
34521;SDS011;25561;48.888;8.736;2023-04-03T14:57:46;5.38;;;1.98;;
34521;SDS011;25561;48.888;8.736;2023-04-03T15:00:47;4.68;;;1.85;;
34521;SDS011;25561;48.888;8.736;2023-04-03T15:03:49;5.00;;;1.95;;
34521;SDS011;25561;48.888;8.736;2023-04-03T15:06:51;8.35;;;1.95;;
34521;SDS011;25561;48.888;8.736;2023-04-03T15:09:54;4.18;;;1.70;;
34521;SDS011;25561;48.888;8.736;2023-04-03T15:12:57;6.90;;;2.00;;
34521;SDS011;25561;48.888;8.736;2023-04-03T15:15:59;6.85;;;1.92;;
34521;SDS011;25561;48.888;8.736;2023-04-03T15:19:01;6.22;;;2.20;;
34521;SDS011;25561;48.888;8.736;2023-04-03T15:22:03;9.40;;;2.28;;
34521;SDS011;25561;48.888;8.736;2023-04-03T15:25:05;9.52;;;1.90;;
34521;SDS011;25561;48.888;8.736;2023-04-03T15:28:08;6.60;;;1.60;;
34521;SDS011;25561;48.888;8.736;2023-04-03T15:31:13;4.63;;;1.83;;
34521;SDS011;25561;48.888;8.736;2023-04-03T15:34:15;6.13;;;1.98;;
34521;SDS011;25561;48.888;8.736;2023-04-03T15:37:17;7.05;;;2.30;;
34521;SDS011;25561;48.888;8.736;2023-04-03T15:40:18;7.85;;;2.00;;
34521;SDS011;25561;48.888;8.736;2023-04-03T15:43:21;5.65;;;2.00;;
34521;SDS011;25561;48.888;8.736;2023-04-03T15:46:23;8.30;;;2.00;;
34521;SDS011;25561;48.888;8.736;2023-04-03T15:49:25;7.00;;;2.15;;
34521;SDS011;25561;48.888;8.736;2023-04-03T15:52:27;3.97;;;1.90;;
34521;SDS011;25561;48.888;8.736;2023-04-03T15:55:29;8.38;;;2.20;;
34521;SDS011;25561;48.888;8.736;2023-04-03T15:58:32;3.05;;;1.70;;
